createdAt,value
2019-04-30T00:00:34.726Z,903.60
2019-04-30T00:01:14.728Z,885.20
2019-04-30T00:01:43.122Z,887.70
2019-04-30T00:02:18.564Z,903.80
2019-04-30T00:02:55.169Z,914.80
2019-04-30T00:03:29.013Z,931.40
2019-04-30T00:04:05.765Z,910.00
2019-04-30T00:04:40.466Z,906.60
2019-04-30T00:05:18.799Z,909.60
2019-04-30T00:05:53.892Z,904.10
2019-04-30T00:06:27.404Z,898.00
2019-04-30T00:07:01.343Z,903.40
2019-04-30T00:07:38.224Z,920.60
2019-04-30T00:08:12.230Z,924.60
2019-04-30T00:08:47.481Z,931.70
2019-04-30T00:09:24.944Z,933.50
2019-04-30T00:09:58.492Z,909.70
2019-04-30T00:10:37.018Z,935.80
2019-04-30T00:11:10.772Z,941.50
2019-04-30T00:11:45.921Z,962.40
2019-04-30T00:12:19.604Z,947.70
2019-04-30T00:12:55.465Z,918.40
2019-04-30T00:13:30.308Z,928.70
2019-04-30T00:14:05.847Z,945.40
2019-04-30T00:14:41.372Z,948.10
2019-04-30T00:15:19.543Z,967.90
2019-04-30T00:15:52.817Z,966.80
2019-04-30T00:16:31.007Z,962.10
2019-04-30T00:17:02.416Z,936.90
2019-04-30T00:17:37.730Z,933.40
2019-04-30T00:18:15.421Z,954.30
2019-04-30T00:18:58.165Z,982.40
2019-04-30T00:19:25.960Z,983.60
2019-04-30T00:20:00.078Z,968.90
2019-04-30T00:20:38.549Z,992.70
2019-04-30T00:21:14.411Z,994.40
2019-04-30T00:21:48.261Z,960.30
2019-04-30T00:22:31.008Z,968.30
2019-04-30T00:22:56.128Z,969.40
2019-04-30T00:23:31.655Z,972.50
2019-04-30T00:24:10.220Z,993.30
2019-04-30T00:24:46.810Z,997.60
2019-04-30T00:25:19.607Z,1002.60
2019-04-30T00:25:53.434Z,971.60
2019-04-30T00:26:28.912Z,970.00
2019-04-30T00:27:05.137Z,965.10
2019-04-30T00:27:39.817Z,970.30
2019-04-30T00:28:15.491Z,1005.70
2019-04-30T00:28:50.305Z,989.60
2019-04-30T00:29:30.475Z,993.80
2019-04-30T00:30:07.286Z,979.10
2019-04-30T00:30:39.244Z,968.80
2019-04-30T00:31:12.355Z,982.60
2019-04-30T00:31:47.678Z,1007.40
2019-04-30T00:32:22.871Z,1015.30
2019-04-30T00:32:58.181Z,1011.90
2019-04-30T00:33:35.233Z,980.10
2019-04-30T00:34:08.892Z,989.50
2019-04-30T00:34:45.505Z,998.10
2019-04-30T00:35:19.734Z,984.10
2019-04-30T00:35:57.882Z,975.60
2019-04-30T00:36:34.166Z,974.30
2019-04-30T00:37:07.397Z,982.80
2019-04-30T00:37:41.124Z,1000.60
2019-04-30T00:38:16.330Z,983.60
2019-04-30T00:38:51.461Z,975.70
2019-04-30T00:39:27.276Z,976.60
2019-04-30T00:40:02.066Z,980.60
2019-04-30T00:40:37.645Z,994.00
2019-04-30T00:41:12.862Z,973.00
2019-04-30T00:41:48.350Z,971.20
2019-04-30T00:42:24.149Z,996.50
2019-04-30T00:43:00.244Z,983.00
2019-04-30T00:43:37.384Z,960.70
2019-04-30T00:44:09.526Z,930.80
2019-04-30T00:44:45.657Z,905.00
2019-04-30T00:45:20.385Z,899.50
2019-04-30T00:45:55.911Z,919.50
2019-04-30T00:46:31.594Z,895.40
2019-04-30T00:47:08.258Z,907.30
2019-04-30T00:47:46.611Z,918.10
2019-04-30T00:48:26.866Z,898.00
2019-04-30T00:48:53.227Z,919.30
2019-04-30T00:49:28.740Z,913.70
2019-04-30T00:50:04.961Z,917.80
2019-04-30T00:50:39.873Z,923.30
2019-04-30T00:51:20.981Z,898.80
2019-04-30T00:51:54.695Z,896.90
2019-04-30T00:52:29.558Z,904.70
2019-04-30T00:53:05.953Z,936.80
2019-04-30T00:53:36.111Z,947.70
2019-04-30T00:54:11.516Z,917.50
2019-04-30T00:54:47.232Z,890.40
2019-04-30T00:55:22.640Z,895.80
2019-04-30T00:55:57.878Z,926.40
2019-04-30T00:56:33.286Z,925.40
2019-04-30T00:57:08.679Z,911.10
2019-04-30T00:57:47.313Z,907.90
2019-04-30T00:58:24.738Z,889.10
2019-04-30T00:58:57.459Z,908.80
2019-04-30T00:59:30.063Z,901.60
2019-04-30T01:00:05.604Z,898.60
2019-04-30T01:00:40.993Z,887.50
2019-04-30T01:01:16.205Z,907.80
2019-04-30T01:01:51.384Z,903.60
2019-04-30T01:02:31.718Z,892.70
2019-04-30T01:03:07.864Z,910.90
2019-04-30T01:03:39.460Z,906.70
2019-04-30T01:04:12.730Z,903.40
2019-04-30T01:04:48.250Z,901.30
2019-04-30T01:05:25.484Z,885.20
2019-04-30T01:05:59.852Z,883.60
2019-04-30T01:06:35.060Z,889.40
2019-04-30T01:07:10.794Z,900.30
2019-04-30T01:07:50.574Z,898.70
2019-04-30T01:08:24.764Z,895.20
2019-04-30T01:08:58.317Z,893.30
2019-04-30T01:09:32.709Z,885.30
2019-04-30T01:10:07.929Z,905.80
2019-04-30T01:10:43.266Z,912.00
2019-04-30T01:11:18.849Z,900.30
2019-04-30T01:11:55.294Z,901.80
2019-04-30T01:12:35.914Z,925.10
2019-04-30T01:13:08.001Z,909.40
2019-04-30T01:13:45.650Z,900.40
2019-04-30T01:14:15.603Z,921.50
2019-04-30T01:14:50.976Z,912.40
2019-04-30T01:15:26.226Z,915.00
2019-04-30T01:16:01.320Z,893.30
2019-04-30T01:16:36.739Z,884.40
2019-04-30T01:17:12.466Z,906.70
2019-04-30T01:17:51.022Z,898.20
2019-04-30T01:18:23.605Z,904.10
2019-04-30T01:18:58.653Z,907.30
2019-04-30T01:19:33.991Z,884.40
2019-04-30T01:20:09.521Z,904.70
2019-04-30T01:20:45.066Z,922.90
2019-04-30T01:21:20.300Z,919.70
2019-04-30T01:21:55.873Z,924.90
2019-04-30T01:22:32.951Z,911.00
2019-04-30T01:23:07.986Z,877.50
2019-04-30T01:23:51.748Z,898.80
2019-04-30T01:24:19.031Z,901.40
2019-04-30T01:24:53.215Z,911.00
2019-04-30T01:25:28.858Z,911.80
2019-04-30T01:26:03.855Z,887.90
2019-04-30T01:26:39.449Z,901.10
2019-04-30T01:27:14.968Z,895.50
2019-04-30T01:27:50.385Z,901.40
2019-04-30T01:28:25.592Z,921.70
2019-04-30T01:29:02.104Z,929.30
2019-04-30T01:29:42.974Z,904.50
2019-04-30T01:30:13.261Z,879.50
2019-04-30T01:30:49.429Z,879.30
2019-04-30T01:31:23.009Z,900.70
2019-04-30T01:31:58.590Z,899.90
2019-04-30T01:32:33.804Z,891.00
2019-04-30T01:33:09.244Z,917.10
2019-04-30T01:33:44.303Z,894.40
2019-04-30T01:34:19.827Z,877.00
2019-04-30T01:34:55.103Z,903.30
2019-04-30T01:35:32.671Z,894.20
2019-04-30T01:36:09.720Z,881.10
2019-04-30T01:36:43.548Z,880.20
2019-04-30T01:37:16.379Z,900.10
2019-04-30T01:37:51.991Z,902.60
2019-04-30T01:38:28.665Z,873.60
2019-04-30T01:39:02.491Z,868.40
2019-04-30T01:39:39.034Z,899.00
2019-04-30T01:40:13.854Z,891.70
2019-04-30T01:40:51.044Z,868.20
2019-04-30T01:41:27.557Z,868.70
2019-04-30T01:42:02.804Z,868.70
2019-04-30T01:42:34.569Z,886.20
2019-04-30T01:43:09.854Z,909.20
2019-04-30T01:43:45.134Z,904.30
2019-04-30T01:44:20.327Z,902.70
2019-04-30T01:44:55.761Z,914.50
2019-04-30T01:45:31.564Z,901.10
2019-04-30T01:46:09.277Z,881.30
2019-04-30T01:46:43.314Z,868.90
2019-04-30T01:47:21.432Z,873.40
2019-04-30T01:47:53.351Z,883.50
2019-04-30T01:48:29.235Z,883.10
2019-04-30T01:49:04.000Z,909.60
2019-04-30T01:49:44.205Z,918.50
2019-04-30T01:50:14.622Z,907.60
2019-04-30T01:50:50.170Z,872.60
2019-04-30T01:51:25.379Z,881.60
2019-04-30T01:52:01.046Z,886.60
2019-04-30T01:52:36.341Z,895.00
2019-04-30T01:53:13.236Z,910.50
2019-04-30T01:53:48.428Z,894.20
2019-04-30T01:54:24.387Z,876.10
2019-04-30T01:54:59.108Z,898.40
2019-04-30T01:55:34.536Z,906.60
2019-04-30T01:56:09.966Z,906.50
2019-04-30T01:56:45.611Z,892.20
2019-04-30T01:57:20.992Z,866.00
2019-04-30T01:57:56.527Z,887.20
2019-04-30T01:58:33.354Z,911.30
2019-04-30T01:59:06.949Z,880.90
2019-04-30T01:59:42.328Z,888.70
2019-04-30T02:00:19.438Z,886.40
2019-04-30T02:00:52.595Z,890.50
2019-04-30T02:01:28.633Z,891.60
2019-04-30T02:02:03.183Z,884.90
2019-04-30T02:02:39.472Z,884.10
2019-04-30T02:03:13.997Z,886.70
2019-04-30T02:03:49.321Z,898.10
2019-04-30T02:04:24.616Z,902.00
2019-04-30T02:04:59.950Z,897.00
2019-04-30T02:05:35.232Z,901.20
2019-04-30T02:06:11.552Z,876.00
2019-04-30T02:06:45.991Z,867.60
2019-04-30T02:07:21.225Z,904.30
2019-04-30T02:07:58.397Z,889.30
2019-04-30T02:08:31.965Z,879.30
2019-04-30T02:09:08.988Z,876.90
2019-04-30T02:09:43.087Z,893.70
2019-04-30T02:10:18.611Z,906.10
2019-04-30T02:10:53.804Z,898.50
2019-04-30T02:11:29.407Z,899.80
2019-04-30T02:12:05.365Z,895.40
2019-04-30T02:12:40.456Z,873.60
2019-04-30T02:13:16.089Z,879.60
2019-04-30T02:13:51.362Z,885.80
2019-04-30T02:14:28.641Z,886.40
2019-04-30T02:15:02.096Z,868.50
2019-04-30T02:15:38.986Z,865.20
2019-04-30T02:16:13.370Z,883.80
2019-04-30T02:16:49.457Z,869.40
2019-04-30T02:17:24.398Z,847.20
2019-04-30T02:17:59.798Z,869.10
2019-04-30T02:18:35.423Z,891.70
2019-04-30T02:19:10.740Z,891.30
2019-04-30T02:19:56.444Z,868.30
2019-04-30T02:20:21.709Z,868.00
2019-04-30T02:20:56.911Z,866.10
2019-04-30T02:21:33.322Z,867.90
2019-04-30T02:22:09.433Z,870.30
2019-04-30T02:22:42.952Z,880.20
2019-04-30T02:23:19.594Z,902.00
2019-04-30T02:23:53.459Z,870.30
2019-04-30T02:24:28.889Z,861.60
2019-04-30T02:25:03.967Z,858.10
2019-04-30T02:25:39.882Z,855.50
2019-04-30T02:26:14.520Z,866.40
2019-04-30T02:26:49.826Z,873.00
2019-04-30T02:27:25.251Z,852.60
2019-04-30T02:28:00.566Z,855.90
2019-04-30T02:28:35.789Z,861.50
2019-04-30T02:29:11.203Z,855.60
2019-04-30T02:29:46.628Z,853.10
2019-04-30T02:30:21.848Z,853.50
2019-04-30T02:30:59.969Z,850.10
2019-04-30T02:31:32.790Z,875.10
2019-04-30T02:32:10.016Z,898.50
2019-04-30T02:32:43.428Z,891.50
2019-04-30T02:33:19.841Z,855.10
2019-04-30T02:33:53.847Z,870.20
2019-04-30T02:34:30.329Z,878.40
2019-04-30T02:35:04.345Z,879.70
2019-04-30T02:35:40.686Z,895.20
2019-04-30T02:36:15.291Z,886.30
2019-04-30T02:36:50.489Z,873.50
2019-04-30T02:37:25.772Z,870.60
2019-04-30T02:38:01.221Z,901.50
2019-04-30T02:38:39.478Z,897.60
2019-04-30T02:39:12.157Z,894.10
2019-04-30T02:39:50.187Z,884.50
2019-04-30T02:40:23.409Z,869.60
2019-04-30T02:40:59.492Z,861.60
2019-04-30T02:41:34.150Z,878.20
2019-04-30T02:42:09.698Z,893.10
2019-04-30T02:42:44.906Z,886.30
2019-04-30T02:43:20.484Z,862.60
2019-04-30T02:43:55.528Z,879.10
2019-04-30T02:44:30.819Z,879.30
2019-04-30T02:45:06.345Z,886.30
2019-04-30T02:45:41.728Z,879.50
2019-04-30T02:46:19.051Z,881.60
2019-04-30T02:46:52.404Z,885.80
2019-04-30T02:47:30.078Z,882.80
2019-04-30T02:48:03.336Z,881.10
2019-04-30T02:48:39.891Z,869.60
2019-04-30T02:49:15.006Z,881.30
2019-04-30T02:49:53.260Z,883.70
2019-04-30T02:50:25.542Z,891.50
2019-04-30T02:51:00.881Z,867.90
2019-04-30T02:51:36.403Z,851.50
2019-04-30T02:52:11.720Z,862.90
2019-04-30T02:52:47.025Z,859.60
2019-04-30T02:53:22.447Z,887.40
2019-04-30T02:54:00.381Z,882.20
2019-04-30T02:54:33.393Z,863.60
2019-04-30T02:55:09.490Z,859.60
2019-04-30T02:55:43.963Z,852.60
2019-04-30T02:56:20.197Z,883.00
2019-04-30T02:56:55.115Z,862.10
2019-04-30T02:57:30.835Z,863.10
2019-04-30T02:58:06.372Z,872.30
2019-04-30T02:58:41.365Z,879.30
2019-04-30T02:59:20.058Z,872.40
2019-04-30T02:59:52.268Z,852.60
2019-04-30T03:00:29.772Z,841.80
2019-04-30T03:01:03.205Z,851.00
2019-04-30T03:01:40.186Z,855.50
2019-04-30T03:02:13.933Z,856.50
2019-04-30T03:02:50.592Z,860.50
2019-04-30T03:03:25.275Z,853.10
2019-04-30T03:04:00.481Z,877.90
2019-04-30T03:04:35.867Z,882.70
2019-04-30T03:05:13.694Z,885.50
2019-04-30T03:05:49.562Z,882.70
2019-04-30T03:06:23.789Z,860.60
2019-04-30T03:06:59.680Z,835.20
2019-04-30T03:07:33.484Z,855.90
2019-04-30T03:08:09.593Z,868.40
2019-04-30T03:08:44.201Z,876.60
2019-04-30T03:09:20.214Z,866.30
2019-04-30T03:09:54.734Z,837.80
2019-04-30T03:10:30.385Z,856.30
2019-04-30T03:11:05.545Z,866.00
2019-04-30T03:11:41.110Z,865.40
2019-04-30T03:12:15.891Z,862.10
2019-04-30T03:12:51.207Z,862.50
2019-04-30T03:13:29.730Z,854.30
2019-04-30T03:14:01.964Z,846.60
2019-04-30T03:14:39.928Z,849.40
2019-04-30T03:15:12.696Z,868.20
2019-04-30T03:15:49.306Z,873.90
2019-04-30T03:16:23.455Z,833.80
2019-04-30T03:17:00.142Z,841.40
2019-04-30T03:17:34.376Z,857.30
2019-04-30T03:18:09.927Z,850.20
2019-04-30T03:18:44.599Z,846.00
2019-04-30T03:19:19.910Z,849.70
2019-04-30T03:19:55.406Z,842.80
2019-04-30T03:20:35.719Z,856.20
2019-04-30T03:21:06.233Z,866.90
2019-04-30T03:21:41.901Z,854.40
2019-04-30T03:22:20.097Z,850.50
2019-04-30T03:22:52.653Z,866.00
2019-04-30T03:23:29.346Z,847.10
2019-04-30T03:24:03.300Z,852.70
2019-04-30T03:24:42.225Z,876.80
2019-04-30T03:25:14.052Z,870.80
2019-04-30T03:25:50.107Z,831.10
2019-04-30T03:26:24.657Z,847.80
2019-04-30T03:27:00.171Z,838.00
2019-04-30T03:27:35.413Z,839.60
2019-04-30T03:28:10.810Z,830.30
2019-04-30T03:28:46.349Z,834.60
2019-04-30T03:29:24.020Z,859.20
2019-04-30T03:29:59.951Z,853.30
2019-04-30T03:30:32.660Z,861.30
2019-04-30T03:31:12.004Z,866.70
2019-04-30T03:31:45.236Z,862.30
2019-04-30T03:32:22.218Z,845.20
2019-04-30T03:32:56.973Z,853.70
2019-04-30T03:33:32.653Z,859.70
2019-04-30T03:34:05.224Z,824.50
2019-04-30T03:34:42.038Z,837.80
2019-04-30T03:35:16.188Z,835.10
2019-04-30T03:35:54.092Z,839.00
2019-04-30T03:36:26.808Z,863.40
2019-04-30T03:37:02.351Z,843.40
2019-04-30T03:37:39.524Z,855.60
2019-04-30T03:38:13.078Z,845.40
2019-04-30T03:38:50.065Z,820.20
2019-04-30T03:39:24.000Z,841.70
2019-04-30T03:40:00.684Z,841.70
2019-04-30T03:40:34.535Z,842.50
2019-04-30T03:41:09.859Z,831.70
2019-04-30T03:41:45.526Z,847.90
2019-04-30T03:42:20.824Z,837.60
2019-04-30T03:42:56.082Z,832.00
2019-04-30T03:43:31.642Z,834.50
2019-04-30T03:44:18.584Z,822.50
2019-04-30T03:44:42.178Z,815.50
2019-04-30T03:45:20.189Z,807.80
2019-04-30T03:45:52.785Z,826.70
2019-04-30T03:46:29.813Z,827.00
2019-04-30T03:47:04.134Z,835.70
2019-04-30T03:47:40.384Z,841.10
2019-04-30T03:48:15.009Z,819.70
2019-04-30T03:48:50.501Z,799.20
2019-04-30T03:49:25.527Z,808.50
2019-04-30T03:50:01.243Z,821.50
2019-04-30T03:50:49.385Z,837.30
2019-04-30T03:51:11.853Z,803.80
2019-04-30T03:51:49.689Z,794.30
2019-04-30T03:52:22.957Z,813.10
2019-04-30T03:53:00.421Z,806.70
2019-04-30T03:53:33.801Z,789.20
2019-04-30T03:54:09.998Z,791.50
2019-04-30T03:54:44.616Z,815.00
2019-04-30T03:55:20.609Z,807.60
2019-04-30T03:55:55.648Z,799.90
2019-04-30T03:56:30.983Z,782.00
2019-04-30T03:57:06.510Z,775.90
2019-04-30T03:57:41.908Z,791.10
2019-04-30T03:58:20.858Z,799.00
2019-04-30T03:58:52.648Z,800.00
2019-04-30T03:59:29.857Z,780.80
2019-04-30T04:00:03.374Z,775.60
2019-04-30T04:00:42.129Z,768.70
2019-04-30T04:01:14.404Z,778.40
2019-04-30T04:01:50.002Z,780.30
2019-04-30T04:02:25.519Z,766.80
2019-04-30T04:03:01.049Z,771.90
2019-04-30T04:03:36.243Z,787.00
2019-04-30T04:04:12.045Z,739.10
2019-04-30T04:04:49.461Z,732.90
2019-04-30T04:05:22.856Z,755.40
2019-04-30T04:05:59.463Z,755.10
2019-04-30T04:06:33.326Z,757.10
2019-04-30T04:07:10.232Z,743.80
2019-04-30T04:07:43.924Z,757.60
2019-04-30T04:08:19.533Z,743.30
2019-04-30T04:08:54.627Z,751.80
2019-04-30T04:09:30.232Z,763.70
2019-04-30T04:10:05.484Z,745.50
2019-04-30T04:10:40.883Z,728.90
2019-04-30T04:11:16.201Z,722.10
2019-04-30T04:11:51.827Z,715.30
2019-04-30T04:12:30.011Z,759.40
2019-04-30T04:13:02.539Z,753.60
2019-04-30T04:13:39.994Z,729.60
2019-04-30T04:14:13.148Z,734.10
2019-04-30T04:14:50.704Z,731.00
2019-04-30T04:15:24.378Z,724.60
2019-04-30T04:15:59.948Z,744.90
2019-04-30T04:16:35.126Z,741.80
2019-04-30T04:17:10.566Z,728.90
2019-04-30T04:17:46.070Z,738.60
2019-04-30T04:18:21.489Z,718.30
2019-04-30T04:18:56.681Z,720.90
2019-04-30T04:19:31.998Z,738.70
2019-04-30T04:20:10.271Z,727.00
2019-04-30T04:20:43.049Z,726.00
2019-04-30T04:21:20.441Z,737.30
2019-04-30T04:21:53.549Z,750.30
2019-04-30T04:22:30.637Z,751.00
2019-04-30T04:23:04.465Z,748.60
2019-04-30T04:23:39.880Z,735.40
2019-04-30T04:24:15.017Z,730.80
2019-04-30T04:24:50.703Z,762.50
2019-04-30T04:25:25.440Z,741.80
2019-04-30T04:26:00.841Z,737.80
2019-04-30T04:26:36.115Z,751.90
2019-04-30T04:27:11.311Z,725.80
2019-04-30T04:27:46.973Z,733.80
2019-04-30T04:28:22.368Z,713.10
2019-04-30T04:28:59.390Z,718.40
2019-04-30T04:29:33.626Z,723.90
2019-04-30T04:30:10.594Z,709.60
2019-04-30T04:30:44.547Z,694.90
2019-04-30T04:31:19.975Z,699.50
2019-04-30T04:31:55.412Z,700.20
2019-04-30T04:32:31.300Z,692.10
2019-04-30T04:33:06.154Z,685.90
2019-04-30T04:33:41.574Z,698.70
2019-04-30T04:34:19.429Z,698.40
2019-04-30T04:34:52.569Z,720.90
2019-04-30T04:35:29.856Z,718.60
2019-04-30T04:36:03.401Z,725.30
2019-04-30T04:36:42.955Z,705.90
2019-04-30T04:37:14.319Z,698.60
2019-04-30T04:37:49.915Z,689.70
2019-04-30T04:38:25.045Z,686.70
2019-04-30T04:39:00.556Z,671.20
2019-04-30T04:39:36.171Z,679.60
2019-04-30T04:40:11.652Z,671.20
2019-04-30T04:40:46.766Z,670.10
2019-04-30T04:41:22.176Z,643.60
2019-04-30T04:41:59.792Z,648.00
2019-04-30T04:42:33.211Z,655.70
2019-04-30T04:43:10.275Z,650.50
2019-04-30T04:43:43.648Z,636.40
2019-04-30T04:44:20.437Z,624.50
2019-04-30T04:44:54.501Z,622.10
2019-04-30T04:45:30.560Z,638.00
2019-04-30T04:46:05.312Z,660.40
2019-04-30T04:46:40.883Z,640.80
2019-04-30T04:47:16.518Z,628.00
2019-04-30T04:47:51.915Z,628.50
2019-04-30T04:48:29.604Z,622.90
2019-04-30T04:49:02.520Z,629.60
2019-04-30T04:49:39.762Z,624.00
2019-04-30T04:50:13.332Z,647.60
2019-04-30T04:50:50.228Z,646.50
2019-04-30T04:51:36.729Z,632.90
2019-04-30T04:51:59.275Z,630.40
2019-04-30T04:52:34.458Z,621.90
2019-04-30T04:53:11.608Z,629.60
2019-04-30T04:53:44.896Z,643.60
2019-04-30T04:54:20.479Z,652.30
2019-04-30T04:54:55.848Z,624.70
2019-04-30T04:55:31.161Z,615.50
2019-04-30T04:56:06.672Z,630.20
2019-04-30T04:56:41.898Z,622.20
2019-04-30T04:57:19.492Z,613.80
2019-04-30T04:57:52.416Z,622.50
2019-04-30T04:58:29.799Z,625.90
2019-04-30T04:59:03.232Z,611.70
2019-04-30T04:59:39.376Z,622.90
2019-04-30T05:00:13.873Z,655.20
2019-04-30T05:00:49.553Z,634.00
2019-04-30T05:01:24.788Z,617.00
2019-04-30T05:02:00.136Z,626.30
2019-04-30T05:02:35.841Z,631.20
2019-04-30T05:03:11.249Z,644.60
2019-04-30T05:03:48.816Z,642.90
2019-04-30T05:04:22.174Z,634.60
2019-04-30T05:04:59.776Z,629.50
2019-04-30T05:05:33.183Z,609.70
2019-04-30T05:06:11.469Z,619.60
2019-04-30T05:06:44.161Z,613.60
2019-04-30T05:07:19.709Z,618.60
2019-04-30T05:07:54.887Z,607.60
2019-04-30T05:08:30.327Z,622.00
2019-04-30T05:09:05.708Z,626.30
2019-04-30T05:09:41.001Z,604.30
2019-04-30T05:10:16.457Z,631.90
2019-04-30T05:10:51.824Z,622.00
2019-04-30T05:11:29.296Z,612.60
2019-04-30T05:12:02.308Z,601.40
2019-04-30T05:12:39.548Z,603.60
2019-04-30T05:13:12.841Z,589.70
2019-04-30T05:13:49.004Z,596.80
2019-04-30T05:14:23.749Z,615.30
2019-04-30T05:14:59.805Z,629.10
2019-04-30T05:15:34.477Z,629.30
2019-04-30T05:16:10.023Z,624.80
2019-04-30T05:16:45.244Z,616.70
2019-04-30T05:17:20.883Z,607.00
2019-04-30T05:17:56.661Z,611.50
2019-04-30T05:18:31.997Z,638.30
2019-04-30T05:19:08.905Z,646.00
2019-04-30T05:19:42.519Z,645.60
2019-04-30T05:20:19.505Z,624.50
2019-04-30T05:20:53.621Z,612.10
2019-04-30T05:21:41.417Z,620.50
2019-04-30T05:22:04.286Z,651.40
2019-04-30T05:22:39.684Z,656.90
2019-04-30T05:23:15.189Z,623.70
2019-04-30T05:23:50.881Z,623.80
2019-04-30T05:24:26.078Z,626.00
2019-04-30T05:25:01.847Z,624.00
2019-04-30T05:25:38.765Z,628.70
2019-04-30T05:26:12.576Z,641.30
2019-04-30T05:26:48.791Z,634.80
2019-04-30T05:27:24.044Z,624.30
2019-04-30T05:27:59.263Z,639.60
2019-04-30T05:28:34.660Z,640.30
2019-04-30T05:29:10.218Z,630.10
2019-04-30T05:29:45.421Z,636.40
2019-04-30T05:30:21.055Z,643.40
2019-04-30T05:30:56.329Z,634.20
2019-04-30T05:31:31.716Z,626.10
2019-04-30T05:32:07.330Z,632.20
2019-04-30T05:32:42.627Z,624.30
2019-04-30T05:33:18.636Z,613.80
2019-04-30T05:33:53.336Z,642.60
2019-04-30T05:34:28.846Z,638.80
2019-04-30T05:35:04.317Z,645.50
2019-04-30T05:35:39.721Z,650.10
2019-04-30T05:36:15.049Z,628.20
2019-04-30T05:36:50.681Z,651.50
2019-04-30T05:37:26.203Z,642.00
2019-04-30T05:38:01.511Z,635.60
2019-04-30T05:38:39.118Z,651.10
2019-04-30T05:39:12.021Z,648.30
2019-04-30T05:39:48.798Z,636.20
2019-04-30T05:40:22.639Z,646.00
2019-04-30T05:40:59.433Z,662.10
2019-04-30T05:41:33.168Z,651.70
2019-04-30T05:42:08.809Z,626.50
2019-04-30T05:43:04.073Z,633.30
2019-04-30T05:43:39.387Z,658.60
2019-04-30T05:44:14.558Z,674.20
2019-04-30T05:44:50.092Z,646.60
2019-04-30T05:45:25.486Z,628.90
2019-04-30T05:46:00.914Z,626.10
2019-04-30T05:46:36.233Z,627.50
2019-04-30T05:47:12.089Z,630.20
2019-04-30T05:47:50.209Z,631.90
2019-04-30T05:48:23.109Z,634.80
2019-04-30T05:48:59.424Z,647.50
2019-04-30T05:49:34.014Z,633.00
2019-04-30T05:50:09.522Z,646.30
2019-04-30T05:50:44.875Z,688.70
2019-04-30T05:51:21.335Z,673.40
2019-04-30T05:51:56.064Z,645.40
2019-04-30T05:52:31.239Z,638.70
2019-04-30T05:53:06.566Z,658.70
2019-04-30T05:53:41.869Z,662.80
2019-04-30T05:54:18.929Z,667.40
2019-04-30T05:54:52.797Z,661.90
2019-04-30T05:55:29.462Z,659.90
2019-04-30T05:56:04.052Z,654.80
2019-04-30T05:56:41.401Z,673.30
2019-04-30T05:57:15.400Z,673.50
2019-04-30T05:57:56.014Z,684.70
2019-04-30T05:58:26.015Z,681.00
2019-04-30T05:59:01.537Z,676.20
2019-04-30T05:59:38.708Z,683.10
2019-04-30T06:00:12.166Z,689.30
2019-04-30T06:00:49.758Z,685.80
2019-04-30T06:01:24.275Z,682.30
2019-04-30T06:01:59.198Z,696.10
2019-04-30T06:02:34.174Z,693.50
2019-04-30T06:03:09.546Z,693.40
2019-04-30T06:03:44.609Z,699.50
2019-04-30T06:04:19.802Z,696.10
2019-04-30T06:04:55.062Z,687.10
2019-04-30T06:05:30.439Z,709.10
2019-04-30T06:06:05.972Z,697.10
2019-04-30T06:06:41.401Z,697.80
2019-04-30T06:07:18.677Z,703.50
2019-04-30T06:07:55.260Z,692.50
2019-04-30T06:08:29.206Z,700.20
2019-04-30T06:09:06.612Z,711.80
2019-04-30T06:09:39.434Z,705.60
2019-04-30T06:10:14.747Z,724.20
2019-04-30T06:10:51.713Z,721.50
2019-04-30T06:11:25.166Z,705.40
2019-04-30T06:12:01.581Z,712.40
2019-04-30T06:12:36.965Z,690.10
2019-04-30T06:13:12.313Z,715.60
2019-04-30T06:13:49.162Z,708.10
2019-04-30T06:14:23.027Z,724.10
2019-04-30T06:14:59.000Z,733.90
2019-04-30T06:15:33.540Z,727.30
2019-04-30T06:16:08.890Z,729.50
2019-04-30T06:16:44.077Z,731.30
2019-04-30T06:17:19.697Z,723.90
2019-04-30T06:18:00.213Z,740.70
2019-04-30T06:18:30.109Z,733.60
2019-04-30T06:19:05.640Z,718.80
2019-04-30T06:19:41.096Z,735.70
2019-04-30T06:20:19.174Z,731.40
2019-04-30T06:20:52.158Z,722.40
2019-04-30T06:21:29.371Z,714.40
2019-04-30T06:22:07.801Z,710.90
2019-04-30T06:22:38.679Z,720.00
2019-04-30T06:23:13.790Z,710.10
2019-04-30T06:23:49.350Z,697.50
2019-04-30T06:24:24.722Z,714.80
2019-04-30T06:25:00.447Z,714.30
2019-04-30T06:25:52.939Z,730.80
2019-04-30T06:26:13.228Z,720.00
2019-04-30T06:26:46.691Z,714.40
2019-04-30T06:27:22.025Z,714.30
2019-04-30T06:27:58.891Z,713.50
2019-04-30T06:28:32.950Z,714.20
2019-04-30T06:29:09.210Z,728.20
2019-04-30T06:29:43.573Z,718.40
2019-04-30T06:30:19.827Z,709.70
2019-04-30T06:30:54.181Z,691.90
2019-04-30T06:31:34.870Z,718.40
2019-04-30T06:32:05.446Z,720.70
2019-04-30T06:32:40.851Z,722.50
2019-04-30T06:33:16.056Z,719.50
2019-04-30T06:33:51.432Z,694.60
2019-04-30T06:34:26.563Z,700.20
2019-04-30T06:35:01.863Z,716.10
2019-04-30T06:35:39.062Z,713.10
2019-04-30T06:36:12.839Z,697.70
2019-04-30T06:36:51.831Z,715.70
2019-04-30T06:37:24.086Z,720.50
2019-04-30T06:37:59.614Z,716.30
2019-04-30T06:38:34.895Z,724.40
2019-04-30T06:39:10.046Z,736.00
2019-04-30T06:39:45.524Z,722.50
2019-04-30T06:40:20.859Z,713.40
2019-04-30T06:40:56.059Z,725.30
2019-04-30T06:41:31.182Z,721.60
2019-04-30T06:42:10.086Z,697.00
2019-04-30T06:42:41.877Z,704.30
2019-04-30T06:43:18.955Z,711.50
2019-04-30T06:43:52.781Z,688.70
2019-04-30T06:44:36.987Z,677.80
2019-04-30T06:45:03.842Z,710.00
2019-04-30T06:45:39.333Z,710.40
2019-04-30T06:46:14.664Z,716.90
2019-04-30T06:46:49.763Z,729.60
2019-04-30T06:47:32.808Z,709.40
2019-04-30T06:48:00.888Z,705.70
2019-04-30T06:48:36.560Z,707.60
2019-04-30T06:49:11.650Z,709.10
2019-04-30T06:49:48.777Z,698.30
2019-04-30T06:50:22.680Z,682.20
2019-04-30T06:50:59.135Z,692.10
2019-04-30T06:51:33.409Z,709.10
2019-04-30T06:52:19.640Z,708.60
2019-04-30T06:52:54.198Z,720.60
2019-04-30T06:53:19.247Z,706.60
2019-04-30T06:53:54.329Z,691.60
2019-04-30T06:54:29.844Z,694.50
2019-04-30T06:55:05.433Z,711.70
2019-04-30T06:55:41.001Z,704.10
2019-04-30T06:56:16.396Z,693.50
2019-04-30T06:56:52.078Z,708.70
2019-04-30T06:57:29.403Z,715.70
2019-04-30T06:58:12.153Z,719.20
2019-04-30T06:58:41.346Z,714.10
2019-04-30T06:59:14.029Z,705.70
2019-04-30T06:59:51.373Z,703.00
2019-04-30T07:00:32.825Z,713.10
2019-04-30T07:01:00.383Z,718.50
2019-04-30T07:01:35.918Z,710.00
2019-04-30T07:02:11.232Z,705.90
2019-04-30T07:02:46.658Z,693.30
2019-04-30T07:03:21.845Z,705.10
2019-04-30T07:04:00.581Z,708.20
2019-04-30T07:04:32.470Z,709.90
2019-04-30T07:05:09.988Z,694.30
2019-04-30T07:05:43.483Z,699.50
2019-04-30T07:06:29.555Z,724.20
2019-04-30T07:07:01.357Z,704.30
2019-04-30T07:07:39.150Z,687.20
2019-04-30T07:08:12.897Z,688.90
2019-04-30T07:08:55.562Z,676.80
2019-04-30T07:09:26.708Z,671.10
2019-04-30T07:10:01.020Z,681.90
2019-04-30T07:10:33.941Z,666.10
2019-04-30T07:11:11.223Z,660.10
2019-04-30T07:11:44.637Z,678.90
2019-04-30T07:12:27.054Z,689.10
2019-04-30T07:12:55.401Z,692.10
2019-04-30T07:13:30.811Z,689.40
2019-04-30T07:14:06.016Z,690.70
2019-04-30T07:14:41.958Z,684.80
2019-04-30T07:15:16.760Z,692.50
2019-04-30T07:15:52.187Z,700.40
2019-04-30T07:16:29.659Z,686.30
2019-04-30T07:17:02.851Z,677.90
2019-04-30T07:17:40.544Z,678.20
2019-04-30T07:18:13.682Z,676.30
2019-04-30T07:18:49.175Z,684.20
2019-04-30T07:19:32.874Z,681.20
2019-04-30T07:19:59.914Z,675.50
2019-04-30T07:20:35.248Z,671.70
2019-04-30T07:21:10.423Z,679.00
2019-04-30T07:21:45.785Z,690.40
2019-04-30T07:22:36.211Z,676.80